createdAt,value
2019-01-18T00:00:33.466Z,1.20
2019-01-18T00:06:02.957Z,2.57
2019-01-18T00:11:32.260Z,2.47
2019-01-18T00:17:01.794Z,1.13
2019-01-18T00:22:31.132Z,3.53
2019-01-18T00:28:00.527Z,2.53
2019-01-18T00:33:30.045Z,2.90
2019-01-18T00:38:59.362Z,2.17
2019-01-18T00:44:28.708Z,2.03
2019-01-18T00:49:58.413Z,1.40
2019-01-18T00:55:27.704Z,0.93
2019-01-18T01:00:57.103Z,1.50
2019-01-18T01:06:26.510Z,2.70
2019-01-18T01:11:56.031Z,1.50
2019-01-18T01:17:25.492Z,1.40
2019-01-18T01:22:55.094Z,1.53
2019-01-18T01:28:24.541Z,1.53
2019-01-18T01:33:53.860Z,0.90
2019-01-18T01:39:23.204Z,1.10
2019-01-18T01:44:52.525Z,3.27
2019-01-18T01:50:24.754Z,0.80
2019-01-18T01:55:54.090Z,1.40
2019-01-18T02:01:23.436Z,1.17
2019-01-18T02:06:52.776Z,1.20
2019-01-18T02:12:22.199Z,1.00
2019-01-18T02:17:51.613Z,1.20
2019-01-18T02:23:21.185Z,1.37
2019-01-18T02:28:50.480Z,1.77
2019-01-18T02:34:19.814Z,4.20
2019-01-18T02:39:49.123Z,1.93
2019-01-18T02:45:21.599Z,1.80
2019-01-18T02:50:51.072Z,2.10
2019-01-18T02:56:20.443Z,2.17
2019-01-18T03:01:49.899Z,2.67
2019-01-18T03:07:19.620Z,2.43
2019-01-18T03:12:49.170Z,1.83
2019-01-18T03:18:18.473Z,2.20
2019-01-18T03:23:47.799Z,4.90
2019-01-18T03:29:17.178Z,2.50
2019-01-18T03:34:46.547Z,2.27
2019-01-18T03:40:19.076Z,3.33
2019-01-18T03:45:48.482Z,2.70
2019-01-18T03:51:17.876Z,3.73
2019-01-18T03:56:47.314Z,1.97
2019-01-18T04:02:16.665Z,2.83
2019-01-18T04:07:46.121Z,3.47
2019-01-18T04:13:15.604Z,3.13
2019-01-18T04:18:45.014Z,2.43
2019-01-18T04:24:14.433Z,2.53
2019-01-18T04:29:43.833Z,1.97
2019-01-18T04:35:14.076Z,2.20
2019-01-18T04:40:43.419Z,1.77
2019-01-18T04:46:12.963Z,1.90
2019-01-18T04:51:42.335Z,6.37
2019-01-18T04:57:12.099Z,2.40
2019-01-18T05:02:41.918Z,1.90
2019-01-18T05:08:11.437Z,3.40
2019-01-18T05:13:41.069Z,3.00
2019-01-18T05:19:11.249Z,2.87
2019-01-18T05:24:40.950Z,3.73
2019-01-18T05:30:27.514Z,2.20
2019-01-18T05:35:56.963Z,1.40
2019-01-18T05:41:26.367Z,3.00
2019-01-18T05:46:55.737Z,3.37
2019-01-18T05:52:25.068Z,2.10
2019-01-18T05:57:54.642Z,5.77
2019-01-18T06:03:24.005Z,4.60
2019-01-18T06:08:53.329Z,4.80
2019-01-18T06:14:22.902Z,1.93
2019-01-18T06:19:52.258Z,1.53
2019-01-18T06:25:21.611Z,2.30
2019-01-18T06:30:51.948Z,2.13
2019-01-18T06:36:21.385Z,5.17
2019-01-18T06:41:51.058Z,3.53
2019-01-18T06:47:20.619Z,3.40
2019-01-18T06:52:49.941Z,8.60
2019-01-18T06:58:19.291Z,4.70
2019-01-18T07:03:48.684Z,4.77
2019-01-18T07:09:18.097Z,4.53
2019-01-18T07:14:47.446Z,2.10
2019-01-18T07:20:21.407Z,2.73
2019-01-18T07:25:50.741Z,11.80
2019-01-18T07:31:20.158Z,3.93
2019-01-18T07:36:49.484Z,2.10
2019-01-18T07:42:18.873Z,6.40
2019-01-18T07:47:48.417Z,5.60
2019-01-18T07:53:17.933Z,2.20
2019-01-18T07:58:47.408Z,2.00
2019-01-18T08:04:16.730Z,2.60
2019-01-18T08:09:46.047Z,4.67
2019-01-18T08:15:20.231Z,4.20
2019-01-18T08:20:49.659Z,3.00
2019-01-18T08:26:19.137Z,5.00
2019-01-18T08:31:48.453Z,4.77
2019-01-18T08:37:17.832Z,1.77
2019-01-18T08:42:47.320Z,2.97
2019-01-18T08:48:16.688Z,1.83
2019-01-18T08:53:46.090Z,1.90
2019-01-18T08:59:15.704Z,2.00
2019-01-18T09:04:45.126Z,7.73
2019-01-18T09:10:17.950Z,6.17
2019-01-18T09:15:47.274Z,6.23
2019-01-18T09:21:16.585Z,3.30
2019-01-18T09:26:46.067Z,2.80
2019-01-18T09:32:15.475Z,4.43
2019-01-18T09:37:45.599Z,3.80
2019-01-18T09:43:15.046Z,5.13
2019-01-18T09:48:44.346Z,4.37
2019-01-18T09:54:13.815Z,5.80
2019-01-18T09:59:43.296Z,4.43
2019-01-18T10:05:13.551Z,2.90
2019-01-18T10:10:43.124Z,3.90
2019-01-18T10:16:12.510Z,5.10
2019-01-18T10:21:42.092Z,2.50
2019-01-18T10:27:11.454Z,4.00
2019-01-18T10:32:44.809Z,3.83
2019-01-18T10:38:15.368Z,5.63
2019-01-18T10:43:45.560Z,3.80
2019-01-18T10:49:16.905Z,3.47
2019-01-18T10:54:47.487Z,3.10
2019-01-18T11:00:22.042Z,7.00
2019-01-18T11:05:51.616Z,4.23
2019-01-18T11:11:21.126Z,3.70
2019-01-18T11:16:53.180Z,5.90
2019-01-18T11:22:26.052Z,4.70
2019-01-18T11:27:55.772Z,2.27
2019-01-18T11:33:25.175Z,2.83
2019-01-18T11:38:54.628Z,5.00
2019-01-18T11:44:24.096Z,5.03
2019-01-18T11:49:53.521Z,4.80
2019-01-18T11:55:23.099Z,4.00
2019-01-18T12:00:52.403Z,5.40
2019-01-18T12:06:21.876Z,5.37
2019-01-18T12:11:51.372Z,6.97
2019-01-18T12:17:20.875Z,6.77
2019-01-18T12:22:50.365Z,4.50
2019-01-18T12:28:19.716Z,5.97
2019-01-18T12:33:49.097Z,4.63
2019-01-18T12:39:18.634Z,4.67
2019-01-18T12:44:54.895Z,5.33
2019-01-18T12:50:41.446Z,4.97
2019-01-18T12:56:10.998Z,11.47
2019-01-18T13:01:40.551Z,2.50
2019-01-18T13:07:10.062Z,3.53
2019-01-18T13:12:39.467Z,4.90
2019-01-18T13:18:08.965Z,3.73
2019-01-18T13:23:38.365Z,2.47
2019-01-18T13:29:08.614Z,3.10
2019-01-18T13:34:38.107Z,4.00
2019-01-18T13:40:24.184Z,7.40
2019-01-18T13:45:53.712Z,6.37
2019-01-18T13:51:23.055Z,2.93
2019-01-18T13:56:52.540Z,6.30
2019-01-18T14:02:22.032Z,2.63
2019-01-18T14:07:53.434Z,2.90
2019-01-18T14:13:22.561Z,2.43
2019-01-18T14:18:51.974Z,6.13
2019-01-18T14:24:21.374Z,3.20
2019-01-18T14:29:50.708Z,6.43
2019-01-18T14:35:22.194Z,3.27
2019-01-18T14:40:52.582Z,6.27
2019-01-18T14:46:21.900Z,5.17
2019-01-18T14:51:52.352Z,4.10
2019-01-18T14:57:23.151Z,5.60
2019-01-18T15:02:52.921Z,6.43
2019-01-18T15:08:24.348Z,7.20
2019-01-18T15:13:53.481Z,11.83
2019-01-18T15:19:23.559Z,4.37
2019-01-18T15:24:54.888Z,5.07
2019-01-18T15:30:30.729Z,5.30
2019-01-18T15:36:01.112Z,7.73
2019-01-18T15:41:30.719Z,9.20
2019-01-18T15:47:00.419Z,12.10
2019-01-18T15:52:29.979Z,10.90
2019-01-18T15:57:59.510Z,6.60
2019-01-18T16:03:30.919Z,22.50
2019-01-18T16:09:00.293Z,6.60
2019-01-18T16:14:30.364Z,8.50
2019-01-18T16:20:03.464Z,10.03
2019-01-18T16:25:37.464Z,11.37
2019-01-18T16:31:09.993Z,8.27
2019-01-18T16:36:43.315Z,8.70
2019-01-18T16:42:14.086Z,11.73
2019-01-18T16:47:45.599Z,12.53
2019-01-18T16:53:15.571Z,9.57
2019-01-18T16:58:46.261Z,12.60
2019-01-18T17:04:17.837Z,13.17
2019-01-18T17:09:53.059Z,19.17
2019-01-18T17:15:26.577Z,14.53
2019-01-18T17:20:58.847Z,15.60
2019-01-18T17:26:28.378Z,12.27
2019-01-18T17:31:59.560Z,13.03
2019-01-18T17:37:33.035Z,15.30
2019-01-18T17:43:26.594Z,22.93
2019-01-18T17:49:06.723Z,15.50
2019-01-18T17:54:57.094Z,16.57
2019-01-18T18:00:40.609Z,11.13
2019-01-18T18:06:34.052Z,12.20
2019-01-18T18:12:46.629Z,14.87
2019-01-18T18:18:37.189Z,19.43
2019-01-18T18:24:33.297Z,15.73
2019-01-18T18:30:28.303Z,12.50
2019-01-18T18:36:29.887Z,12.93
2019-01-18T18:42:36.355Z,10.27
2019-01-18T18:48:33.012Z,11.10
2019-01-18T18:54:40.626Z,9.50
2019-01-18T19:00:17.375Z,11.17
2019-01-18T19:06:32.079Z,12.33
2019-01-18T19:12:21.436Z,11.90
2019-01-18T19:18:15.361Z,9.17
2019-01-18T19:24:01.365Z,11.57
2019-01-18T19:29:53.199Z,17.07
2019-01-18T19:35:58.884Z,21.73
2019-01-18T19:41:41.885Z,18.37
2019-01-18T19:47:26.069Z,16.73
2019-01-18T19:53:30.397Z,10.67
2019-01-18T19:59:37.045Z,15.93
2019-01-18T20:05:28.039Z,22.70
2019-01-18T20:11:22.419Z,14.10
2019-01-18T20:17:09.423Z,12.50
2019-01-18T20:23:11.529Z,10.87
2019-01-18T20:29:13.026Z,10.70
2019-01-18T20:35:32.766Z,10.20
2019-01-18T20:41:41.413Z,12.50
2019-01-18T20:47:36.823Z,15.43
2019-01-18T20:53:34.876Z,18.90
2019-01-18T20:59:36.187Z,14.33
2019-01-18T21:05:17.727Z,16.60
2019-01-18T21:11:09.767Z,23.43
2019-01-18T21:16:52.394Z,12.83
2019-01-18T21:22:55.926Z,26.10
2019-01-18T21:28:58.290Z,19.43
2019-01-18T21:34:56.135Z,19.67
2019-01-18T21:40:42.689Z,15.20
2019-01-18T21:46:25.718Z,19.40
2019-01-18T21:52:34.373Z,18.40
2019-01-18T21:58:23.256Z,14.43
2019-01-18T22:04:17.123Z,18.07
2019-01-18T22:10:06.295Z,20.87
2019-01-18T22:16:02.556Z,25.77
2019-01-18T22:22:23.539Z,18.40
2019-01-18T22:28:11.627Z,20.10
2019-01-18T22:33:51.218Z,21.20
2019-01-18T22:39:40.016Z,12.57
2019-01-18T22:45:19.637Z,10.83
2019-01-18T22:50:53.833Z,17.87
2019-01-18T22:56:45.762Z,13.07
2019-01-18T23:02:25.903Z,13.10
2019-01-18T23:08:28.873Z,12.50
2019-01-18T23:14:14.852Z,9.60
2019-01-18T23:20:10.274Z,13.50
2019-01-18T23:25:56.483Z,13.43
2019-01-18T23:32:06.550Z,12.20
2019-01-18T23:37:49.286Z,12.33
2019-01-18T23:43:23.402Z,10.97
2019-01-18T23:49:18.365Z,14.30
2019-01-18T23:55:00.007Z,14.63
